Time;durP1;ratioP1;P1;durP2;ratioP2;P2;SDS_P1;SDS_P2;PMS_P1;PMS_P2;Temp;Humidity;BMP_temperature;BMP_pressure;BME280_temperature;BME280_humidity;BME280_pressure;Samples;Min_cycle;Max_cycle;Signal;HPM_P1;HPM_P2
2021/11/29 01:25:46;;;;;;;6.25;2.78;;;;;;;-0.57;100.00;100308.78;2611713;54;20030;-72
2021/11/29 01:28:15;;;;;;;3.72;2.55;;;;;;;-0.58;100.00;100312.34;2611107;36;20122;-73
2021/11/29 01:30:43;;;;;;;5.28;2.53;;;;;;;-0.64;100.00;100317.97;2610855;36;20165;-72
2021/11/29 01:33:12;;;;;;;7.43;3.05;;;;;;;-0.60;100.00;100317.72;2611081;36;20579;-72
2021/11/29 01:35:40;;;;;;;5.50;2.22;;;;;;;-0.60;100.00;100330.09;2611136;36;20030;-73
2021/11/29 01:38:09;;;;;;;6.53;2.25;;;;;;;-0.55;100.00;100333.34;2610214;34;20030;-73
2021/11/29 01:40:44;;;;;;;4.50;2.00;;;;;;;-0.58;100.00;100331.69;2611237;36;20561;-73
2021/11/29 01:43:14;;;;;;;9.82;2.50;;;;;;;-0.50;100.00;100328.69;2611548;36;20632;-73
2021/11/29 01:45:44;;;;;;;7.45;2.67;;;;;;;-0.43;100.00;100324.78;2612344;36;20578;-71
2021/11/29 01:48:14;;;;;;;10.82;2.47;;;;;;;-0.49;100.00;100330.38;2611412;31;20145;-71
2021/11/29 01:50:44;;;;;;;;;;;;;;;-0.49;100.00;100325.09;2611888;31;20129;-74
2021/11/29 01:53:13;;;;;;;6.28;2.60;;;;;;;-0.52;100.00;100333.19;2610984;36;20138;-72
2021/11/29 01:55:46;;;;;;;8.70;2.85;;;;;;;-0.69;100.00;100326.13;2611280;36;20141;-73
2021/11/29 01:58:14;;;;;;;4.70;2.63;;;;;;;-0.74;100.00;100322.84;2610593;36;20145;-73
2021/11/29 02:03:57;;;;;;;5.85;2.17;;;;;;;-0.77;100.00;100328.28;2611264;36;20065;-73
2021/11/29 02:06:25;;;;;;;5.50;1.92;;;;;;;-0.71;100.00;100320.03;2610726;36;20041;-72
2021/11/29 02:08:54;;;;;;;11.70;2.13;;;;;;;-0.60;100.00;100319.53;2611520;36;20560;-72
2021/11/29 02:11:29;;;;;;;6.20;1.87;;;;;;;-0.60;100.00;100323.00;2628452;36;20181;-74
2021/11/29 02:13:59;;;;;;;7.45;1.63;;;;;;;-0.33;100.00;100324.31;2610594;36;20150;-74
2021/11/29 02:16:28;;;;;;;11.45;1.50;;;;;;;-0.08;100.00;100318.59;2611222;36;20081;-72
2021/11/29 02:18:57;;;;;;;10.48;1.42;;;;;;;0.16;100.00;100319.06;2611233;36;20030;-72
2021/11/29 02:21:32;;;;;;;3.73;1.30;;;;;;;0.48;100.00;100319.94;2610835;36;20045;-73
2021/11/29 02:24:04;;;;;;;4.65;1.40;;;;;;;0.66;100.00;100310.13;2611032;36;20035;-72
2021/11/29 02:26:35;;;;;;;12.93;1.70;;;;;;;0.78;100.00;100316.53;2611570;36;20441;-73
2021/11/29 02:29:07;;;;;;;7.78;1.55;;;;;;;0.85;100.00;100304.66;2610221;36;20057;-73
2021/11/29 02:31:39;;;;;;;4.45;1.30;;;;;;;0.92;100.00;100315.75;2611391;31;20126;-73
2021/11/29 02:34:09;;;;;;;6.15;1.25;;;;;;;0.97;100.00;100312.81;2610382;36;20046;-72
2021/11/29 02:36:40;;;;;;;6.25;1.30;;;;;;;1.03;100.00;100313.34;2611390;31;20038;-72
2021/11/29 02:39:10;;;;;;;7.78;1.23;;;;;;;1.03;100.00;100312.47;2610266;36;20126;-72
2021/11/29 02:41:43;;;;;;;10.40;1.30;;;;;;;1.10;100.00;100313.81;2610749;36;20122;-73
2021/11/29 02:44:11;;;;;;;3.47;1.20;;;;;;;1.01;100.00;100320.50;2610498;36;20035;-72
2021/11/29 02:46:40;;;;;;;8.35;1.38;;;;;;;0.90;100.00;100320.28;2610820;36;20149;-73
2021/11/29 02:49:09;;;;;;;3.97;1.30;;;;;;;0.94;100.00;100319.16;2610540;36;20550;-72
2021/11/29 02:51:43;;;;;;;5.25;1.17;;;;;;;1.07;100.00;100319.31;2611180;36;20061;-73
2021/11/29 02:54:14;;;;;;;6.57;1.38;;;;;;;1.02;100.00;100316.91;2610916;36;20444;-73
2021/11/29 02:56:44;;;;;;;4.97;0.95;;;;;;;1.03;100.00;100320.41;2611254;36;20169;-72
2021/11/29 02:59:16;;;;;;;4.15;1.17;;;;;;;1.17;100.00;100314.34;2610793;36;20052;-73
2021/11/29 03:01:46;;;;;;;3.97;1.23;;;;;;;1.21;100.00;100305.25;2611182;36;20069;-73
2021/11/29 03:04:15;;;;;;;6.95;1.30;;;;;;;1.11;100.00;100310.22;2611095;31;20122;-72
2021/11/29 03:06:46;;;;;;;2.85;0.80;;;;;;;1.05;100.00;100311.44;2610881;31;20038;-72
2021/11/29 03:09:14;;;;;;;5.20;1.15;;;;;;;0.96;100.00;100322.56;2610974;36;20636;-72
2021/11/29 03:11:43;;;;;;;5.85;1.40;;;;;;;1.10;100.00;100323.56;2611530;36;20193;-73
2021/11/29 03:14:11;;;;;;;2.58;1.00;;;;;;;0.99;100.00;100321.56;2609935;36;20084;-72
2021/11/29 03:16:40;;;;;;;16.77;1.85;;;;;;;0.82;100.00;100327.81;2611347;36;20061;-73
2021/11/29 03:19:09;;;;;;;3.50;1.27;;;;;;;0.64;100.00;100325.25;2609524;36;20133;-73
2021/11/29 03:21:41;;;;;;;5.55;0.93;;;;;;;0.63;100.00;100330.63;2610358;36;20057;-73
2021/11/29 03:24:12;;;;;;;2.28;1.10;;;;;;;0.57;100.00;100331.81;2610674;36;20055;-74
2021/11/29 03:26:42;;;;;;;3.85;0.90;;;;;;;0.59;100.00;100332.59;2611017;36;20141;-72
2021/11/29 03:29:11;;;;;;;;;;;;;;;0.56;100.00;100332.78;2610897;36;20125;-73
2021/11/29 03:31:40;;;;;;;6.07;1.10;;;;;;;0.52;100.00;100339.19;2610676;36;19946;-72
2021/11/29 03:34:10;;;;;;;;;;;;;;;0.53;100.00;100340.91;2610822;36;20031;-72
2021/11/29 03:36:38;;;;;;;;;;;;;;;0.58;100.00;100343.28;2611044;36;19973;-73
2021/11/29 03:39:09;;;;;;;1.30;0.85;;;;;;;0.47;100.00;100351.81;2610657;36;20053;-73
2021/11/29 03:41:41;;;;;;;6.40;1.10;;;;;;;0.36;100.00;100349.75;2611504;36;20537;-73
2021/11/29 03:44:10;;;;;;;6.38;1.45;;;;;;;0.34;100.00;100351.63;2610587;36;20592;-73
2021/11/29 03:46:39;;;;;;;3.58;0.90;;;;;;;0.23;100.00;100346.91;2610950;36;20031;-73
2021/11/29 03:49:10;;;;;;;2.85;1.00;;;;;;;0.13;100.00;100354.50;2611062;36;20617;-73
2021/11/29 03:51:39;;;;;;;5.47;1.10;;;;;;;0.06;100.00;100357.53;2610649;31;20747;-72
2021/11/29 03:54:08;;;;;;;4.82;1.02;;;;;;;-0.02;100.00;100355.28;2610821;31;20133;-72
2021/11/29 03:56:39;;;;;;;5.53;1.20;;;;;;;-0.01;100.00;100367.59;2610935;36;20173;-72
2021/11/29 03:59:08;;;;;;;5.45;1.13;;;;;;;-0.04;100.00;100358.03;2610992;36;20038;-72
2021/11/29 04:01:37;;;;;;;2.38;1.25;;;;;;;-0.04;100.00;100363.31;2610569;36;20597;-72
2021/11/29 04:06:46;;;;;;;5.45;1.27;;;;;;;0.00;100.00;100371.97;2611356;36;20478;-72
2021/11/29 04:09:41;;;;;;;4.45;1.80;;;;;;;0.03;100.00;100371.81;2611219;36;20038;-71
2021/11/29 04:12:12;;;;;;;4.95;1.48;;;;;;;-0.01;100.00;100364.97;2612109;31;20145;-72
2021/11/29 04:14:41;;;;;;;5.28;1.63;;;;;;;0.09;100.00;100373.25;2611996;31;20034;-73
2021/11/29 04:17:09;;;;;;;6.00;1.40;;;;;;;-0.03;100.00;100365.03;2611572;31;20129;-73
2021/11/29 04:22:18;;;;;;;4.18;1.50;;;;;;;-0.10;100.00;100374.22;2611250;36;20909;-73
2021/11/29 04:25:08;;;;;;;2.95;1.35;;;;;;;-0.14;100.00;100377.97;2610553;36;20042;-72
2021/11/29 04:27:41;;;;;;;6.43;1.40;;;;;;;-0.11;100.00;100376.94;2610508;31;20038;-72
2021/11/29 04:30:12;;;;;;;7.55;1.40;;;;;;;-0.09;100.00;100375.06;2611603;36;20034;-73
2021/11/29 04:32:40;;;;;;;4.07;1.42;;;;;;;-0.12;100.00;100378.72;2610784;36;20037;-72
2021/11/29 04:35:10;;;;;;;6.47;1.40;;;;;;;-0.08;100.00;100382.09;2611223;36;20061;-73
2021/11/29 04:37:38;;;;;;;;;;;;;;;-0.16;100.00;100385.13;2611037;36;20058;-73
2021/11/29 04:40:11;;;;;;;2.28;1.25;;;;;;;-0.25;100.00;100386.47;2611656;36;20030;-73
2021/11/29 04:42:42;;;;;;;3.22;1.35;;;;;;;-0.19;100.00;100377.34;2611372;36;20627;-73
2021/11/29 04:45:11;;;;;;;7.10;1.35;;;;;;;-0.14;100.00;100380.59;2612101;36;20125;-72
2021/11/29 04:47:40;;;;;;;9.10;1.33;;;;;;;-0.20;100.00;100371.19;2611062;36;20083;-72
2021/11/29 04:50:13;;;;;;;5.70;1.60;;;;;;;-0.17;100.00;100380.75;2611726;36;20548;-72
2021/11/29 04:53:11;;;;;;;8.98;2.00;;;;;;;-0.14;100.00;100382.41;2611775;36;20042;-73
2021/11/29 04:55:39;;;;;;;7.35;1.38;;;;;;;-0.16;100.00;100378.97;2611706;36;20169;-72
2021/11/29 04:58:17;;;;;;;6.13;1.67;;;;;;;-0.25;100.00;100375.00;2610786;36;20142;-72
2021/11/29 05:01:09;;;;;;;8.85;2.10;;;;;;;-0.28;100.00;100380.44;2611588;36;20165;-73
2021/11/29 05:03:41;;;;;;;10.00;1.42;;;;;;;-0.39;100.00;100376.56;2611394;36;20156;-72
2021/11/29 05:06:09;;;;;;;10.35;1.70;;;;;;;-0.41;100.00;100385.53;2611031;36;20542;-73
2021/11/29 05:08:38;;;;;;;8.85;1.83;;;;;;;-0.38;100.00;100385.38;2611114;36;20126;-72
2021/11/29 05:11:06;;;;;;;5.15;1.17;;;;;;;-0.42;100.00;100389.94;2611425;36;20582;-72
2021/11/29 05:13:39;;;;;;;5.70;1.40;;;;;;;-0.27;100.00;100387.47;2611322;31;20474;-72
2021/11/29 05:16:14;;;;;;;9.15;1.50;;;;;;;-0.27;100.00;100382.16;2610680;36;20060;-71
2021/11/29 05:18:43;;;;;;;6.28;1.30;;;;;;;-0.15;100.00;100389.47;2611322;36;20130;-73
2021/11/29 05:21:11;;;;;;;4.30;1.52;;;;;;;0.10;100.00;100396.13;2612228;31;20578;-73
2021/11/29 05:23:47;;;;;;;9.85;1.42;;;;;;;0.31;100.00;100395.00;2612550;36;20134;-72
2021/11/29 05:31:38;;;;;;;4.60;1.30;;;;;;;0.07;100.00;100401.59;2610642;36;20836;-73
2021/11/29 05:34:06;;;;;;;6.80;1.30;;;;;;;0.11;100.00;100413.72;2611115;36;20663;-73
2021/11/29 05:36:34;;;;;;;5.72;1.60;;;;;;;0.10;100.00;100407.56;2610876;36;20129;-73
2021/11/29 05:39:06;;;;;;;11.15;1.70;;;;;;;0.14;100.00;100402.97;2611394;36;20494;-72
2021/11/29 05:42:01;;;;;;;9.48;2.15;;;;;;;0.20;100.00;100407.94;2611530;36;20137;-72
2021/11/29 05:44:32;;;;;;;4.80;1.35;;;;;;;0.38;100.00;100407.91;2611295;36;20170;-73
2021/11/29 05:47:00;;;;;;;6.22;1.73;;;;;;;0.59;100.00;100400.59;2611083;31;20137;-72
2021/11/29 05:52:24;;;;;;;5.75;1.45;;;;;;;1.17;100.00;100402.66;2610505;36;20551;-72
2021/11/29 05:57:36;;;;;;;10.57;1.38;;;;;;;1.54;100.00;100408.47;2611147;36;20041;-72
2021/11/29 06:02:53;;;;;;;8.90;1.63;;;;;;;1.83;100.00;100410.38;2627295;36;20039;-72
2021/11/29 06:08:09;;;;;;;4.60;1.20;;;;;;;1.89;100.00;100423.28;2610308;36;20041;-71
2021/11/29 06:10:37;;;;;;;6.00;1.58;;;;;;;2.06;100.00;100424.91;2611478;36;20451;-71
2021/11/29 06:13:05;;;;;;;10.80;1.70;;;;;;;2.13;100.00;100423.59;2611582;36;20155;-70
2021/11/29 06:18:18;;;;;;;7.65;1.48;;;;;;;2.36;100.00;100426.69;2609473;36;20581;-71
2021/11/29 06:20:47;;;;;;;11.45;1.75;;;;;;;2.41;100.00;100436.03;2612313;31;20632;-73
2021/11/29 06:23:15;;;;;;;10.77;1.70;;;;;;;2.48;100.00;100452.47;2611228;31;21359;-72
2021/11/29 06:25:43;;;;;;;8.27;1.27;;;;;;;2.47;100.00;100447.25;2611432;36;20045;-72
2021/11/29 06:28:12;;;;;;;8.25;1.13;;;;;;;2.59;100.00;100447.38;2611034;36;20137;-72
2021/11/29 06:30:42;;;;;;;5.20;0.98;;;;;;;2.64;100.00;100436.44;2609669;36;20176;-72
2021/11/29 06:33:11;;;;;;;3.65;1.20;;;;;;;2.66;100.00;100434.53;2611025;36;20034;-72
2021/11/29 06:35:39;;;;;;;6.45;1.27;;;;;;;2.66;100.00;100439.84;2611196;36;20034;-72
2021/11/29 06:38:08;;;;;;;6.05;1.50;;;;;;;2.65;100.00;100443.47;2612429;31;20527;-71
2021/11/29 06:40:37;;;;;;;5.72;1.20;;;;;;;2.66;100.00;100450.47;2611231;36;20042;-73
2021/11/29 06:43:06;;;;;;;6.80;1.40;;;;;;;2.69;100.00;100444.13;2611255;36;20137;-72
2021/11/29 06:45:35;;;;;;;4.30;1.27;;;;;;;2.70;100.00;100446.69;2610774;36;20582;-72
2021/11/29 06:48:06;;;;;;;5.47;1.35;;;;;;;2.80;100.00;100444.31;2611208;31;20157;-72
2021/11/29 06:50:35;;;;;;;7.90;1.17;;;;;;;2.83;100.00;100452.09;2611119;36;20118;-72
2021/11/29 06:53:03;;;;;;;5.45;1.60;;;;;;;2.89;100.00;100453.50;2611312;36;20076;-71
2021/11/29 06:55:32;;;;;;;6.97;1.57;;;;;;;2.83;100.00;100456.53;2611223;31;20034;-71
2021/11/29 07:00:35;;;;;;;7.72;1.80;;;;;;;2.77;100.00;100458.66;2608672;36;20539;-71
2021/11/29 07:03:06;;;;;;;7.00;1.70;;;;;;;2.79;100.00;100467.34;2611290;36;20037;-72
2021/11/29 07:05:34;;;;;;;7.25;1.45;;;;;;;2.74;100.00;100461.50;2611204;36;20038;-72
2021/11/29 07:08:03;;;;;;;7.03;1.50;;;;;;;2.68;100.00;100464.53;2609828;36;20082;-72
2021/11/29 07:13:14;;;;;;;7.93;1.50;;;;;;;2.69;100.00;100465.38;2609880;36;20947;-72
2021/11/29 07:15:43;;;;;;;8.77;1.38;;;;;;;2.73;100.00;100470.41;2610890;36;20153;-72
2021/11/29 07:18:14;;;;;;;;;;;;;;;2.77;100.00;100474.59;2609899;36;20133;-72
2021/11/29 07:20:43;;;;;;;9.73;1.67;;;;;;;2.79;100.00;100479.81;2610708;36;20097;-73
2021/11/29 07:23:11;;;;;;;9.60;1.65;;;;;;;2.78;100.00;100480.75;2609980;36;20034;-73
2021/11/29 07:25:40;;;;;;;7.43;1.50;;;;;;;2.77;100.00;100495.00;2611433;31;20057;-73
2021/11/29 07:28:08;;;;;;;6.75;1.20;;;;;;;2.84;100.00;100495.47;2610278;36;20194;-72
2021/11/29 07:30:37;;;;;;;6.53;1.50;;;;;;;2.89;100.00;100504.03;2608590;36;20078;-72
2021/11/29 07:33:05;;;;;;;5.33;2.20;;;;;;;2.99;100.00;100513.13;2610004;36;20034;-72
2021/11/29 07:46:14;;;;;;;5.32;1.05;;;;;;;3.25;100.00;100534.56;2609677;36;20644;-72
2021/11/29 07:48:43;;;;;;;8.25;1.50;;;;;;;3.27;100.00;100540.66;2625849;36;20479;-72
2021/11/29 07:51:15;;;;;;;5.75;1.13;;;;;;;3.28;100.00;100535.22;2607791;36;20059;-72
2021/11/29 07:53:44;;;;;;;6.13;1.30;;;;;;;3.19;100.00;100549.09;2606221;36;20053;-72
2021/11/29 07:56:12;;;;;;;6.40;1.27;;;;;;;3.15;100.00;100561.75;2608250;36;20048;-71
2021/11/29 07:58:40;;;;;;;5.18;1.27;;;;;;;3.15;100.00;100553.75;2609381;36;20065;-72
2021/11/29 08:01:11;;;;;;;4.47;1.20;;;;;;;3.14;100.00;100573.31;2610131;36;20158;-72
2021/11/29 08:03:39;;;;;;;3.67;1.25;;;;;;;3.11;100.00;100578.81;2608970;36;20042;-71
2021/11/29 08:06:11;;;;;;;6.07;1.27;;;;;;;3.10;100.00;100576.25;2604870;36;20041;-72
2021/11/29 08:08:43;;;;;;;4.00;1.30;;;;;;;3.12;100.00;100575.22;2604079;36;20154;-72
2021/11/29 08:11:12;;;;;;;5.40;1.20;;;;;;;3.16;100.00;100586.50;2602585;36;20621;-71
2021/11/29 08:13:40;;;;;;;6.47;1.15;;;;;;;3.12;100.00;100590.31;2610909;31;20063;-73
2021/11/29 08:16:09;;;;;;;9.63;1.10;;;;;;;3.08;100.00;100584.34;2610470;36;20150;-72
2021/11/29 08:18:37;;;;;;;4.40;1.00;;;;;;;3.09;100.00;100591.38;2605193;36;20077;-72
2021/11/29 08:21:05;;;;;;;4.30;1.13;;;;;;;3.10;100.00;100593.06;2609071;36;20213;-73
2021/11/29 08:23:34;;;;;;;8.75;1.60;;;;;;;3.20;100.00;100597.84;2599569;36;20574;-72
2021/11/29 08:26:05;;;;;;;5.78;1.73;;;;;;;3.30;100.00;100604.28;2606566;36;20030;-72
2021/11/29 08:28:34;;;;;;;6.25;1.23;;;;;;;3.40;100.00;100605.44;2607165;36;20227;-71
2021/11/29 08:31:11;;;;;;;5.45;1.30;;;;;;;3.39;100.00;100601.06;2594451;36;20141;-71
2021/11/29 08:33:39;;;;;;;7.25;2.00;;;;;;;3.35;100.00;100604.84;2603333;36;20876;-71
2021/11/29 08:36:15;;;;;;;5.25;1.40;;;;;;;3.37;100.00;100604.75;2593885;36;20061;-71
2021/11/29 08:38:43;;;;;;;6.10;1.42;;;;;;;3.35;100.00;100615.50;2604277;36;20058;-72
2021/11/29 08:43:54;;;;;;;5.80;1.20;;;;;;;3.48;100.00;100627.06;2603030;36;20567;-71
2021/11/29 08:49:03;;;;;;;6.65;1.42;;;;;;;3.72;100.00;100626.47;2602690;36;20741;-71
2021/11/29 08:51:32;;;;;;;3.78;1.15;;;;;;;3.85;100.00;100639.84;2603023;36;20520;-71
2021/11/29 08:54:00;;;;;;;6.03;1.50;;;;;;;3.85;100.00;100643.34;2603296;36;20034;-71
2021/11/29 08:56:31;;;;;;;5.47;1.20;;;;;;;3.87;100.00;100651.25;2600354;36;20031;-71
2021/11/29 08:59:00;;;;;;;4.57;1.33;;;;;;;3.82;100.00;100643.56;2604089;36;20057;-70
2021/11/29 09:01:28;;;;;;;3.65;1.20;;;;;;;3.86;100.00;100646.91;2603065;36;20031;-71
2021/11/29 09:03:56;;;;;;;4.50;1.17;;;;;;;3.94;100.00;100657.06;2603847;36;20089;-71
2021/11/29 09:06:24;;;;;;;5.43;1.40;;;;;;;3.91;100.00;100659.91;2603824;31;20586;-71
2021/11/29 09:08:53;;;;;;;2.33;1.10;;;;;;;3.90;100.00;100667.06;2604326;36;20039;-70
2021/11/29 09:11:21;;;;;;;5.22;1.30;;;;;;;3.88;100.00;100668.94;2603304;36;20044;-70
2021/11/29 09:13:52;;;;;;;6.22;1.88;;;;;;;3.92;100.00;100672.28;2603547;36;20038;-71
2021/11/29 09:16:21;;;;;;;4.72;1.60;;;;;;;3.92;100.00;100673.13;2603554;36;20042;-71
2021/11/29 09:18:50;;;;;;;4.95;1.17;;;;;;;3.91;100.00;100678.56;2603489;31;20463;-70
2021/11/29 09:21:21;;;;;;;2.00;1.15;;;;;;;3.92;100.00;100691.75;2604343;31;20130;-71
2021/11/29 09:23:49;;;;;;;3.10;1.38;;;;;;;3.92;100.00;100685.59;2607071;36;20138;-71
2021/11/29 09:26:21;;;;;;;3.90;1.47;;;;;;;4.00;100.00;100685.94;2611576;36;20074;-71
2021/11/29 09:28:52;;;;;;;4.47;1.20;;;;;;;4.03;100.00;100688.41;2611611;36;20295;-72
2021/11/29 09:31:47;;;;;;;1.70;0.90;;;;;;;4.12;100.00;100692.28;2609621;36;21240;-71
2021/11/29 09:34:15;;;;;;;6.13;1.25;;;;;;;4.27;100.00;100703.75;2603872;31;20034;-71
2021/11/29 09:36:44;;;;;;;5.90;1.60;;;;;;;4.30;100.00;100704.44;2607066;36;20438;-71
2021/11/29 09:39:12;;;;;;;2.90;1.20;;;;;;;4.30;100.00;100714.22;2606159;36;20035;-72
2021/11/29 09:41:41;;;;;;;3.58;1.33;;;;;;;4.25;100.00;100716.34;2604308;31;20146;-71
2021/11/29 09:44:12;;;;;;;4.50;1.60;;;;;;;4.23;100.00;100721.75;2603625;36;20129;-71
2021/11/29 09:46:40;;;;;;;3.22;1.20;;;;;;;4.25;100.00;100719.00;2602934;36;20045;-72
2021/11/29 09:49:11;;;;;;;5.78;1.45;;;;;;;4.19;100.00;100726.41;2604288;36;20141;-72
2021/11/29 09:51:40;;;;;;;4.43;1.52;;;;;;;4.14;100.00;100728.53;2603744;36;20061;-71
2021/11/29 09:54:09;;;;;;;;;;;;;;;4.16;100.00;100742.59;2603394;36;20141;-71
2021/11/29 09:56:38;;;;;;;;;;;;;;;4.20;100.00;100738.78;2603932;36;19974;-71
2021/11/29 09:59:08;;;;;;;3.47;1.70;;;;;;;4.24;100.00;100743.91;2603714;36;19958;-71
2021/11/29 10:01:39;;;;;;;3.55;1.50;;;;;;;4.29;100.00;100736.50;2603722;36;20616;-72
2021/11/29 10:04:07;;;;;;;6.13;1.40;;;;;;;4.31;100.00;100737.25;2603568;36;20134;-71
2021/11/29 10:06:36;;;;;;;2.05;1.10;;;;;;;4.37;100.00;100736.84;2603837;36;20385;-71
2021/11/29 10:09:06;;;;;;;5.38;1.60;;;;;;;4.37;100.00;100742.19;2604486;36;20641;-71
2021/11/29 10:11:34;;;;;;;6.68;1.73;;;;;;;4.39;100.00;100741.13;2609121;36;20141;-73
2021/11/29 10:14:05;;;;;;;5.30;1.40;;;;;;;4.44;100.00;100745.31;2610983;31;20843;-72
2021/11/29 10:16:42;;;;;;;6.35;2.40;;;;;;;4.55;100.00;100742.81;2609045;36;20129;-71
2021/11/29 10:19:34;;;;;;;6.57;1.50;;;;;;;4.57;100.00;100746.22;2610493;36;20126;-72
2021/11/29 10:22:15;;;;;;;6.25;1.60;;;;;;;4.59;100.00;100756.78;2609878;36;20058;-71
2021/11/29 10:24:44;;;;;;;6.13;1.60;;;;;;;4.65;100.00;100753.72;2610755;36;20603;-71
2021/11/29 10:27:13;;;;;;;5.05;1.48;;;;;;;4.56;100.00;100756.03;2611279;31;20516;-72
2021/11/29 10:29:52;;;;;;;11.07;2.17;;;;;;;4.60;100.00;100755.84;2609750;36;20561;-71
2021/11/29 10:32:35;;;;;;;4.83;1.73;;;;;;;4.68;100.00;100754.38;2611328;31;20046;-72
2021/11/29 10:35:04;;;;;;;6.30;1.83;;;;;;;4.70;100.00;100754.28;2611184;36;20038;-71
2021/11/29 10:37:36;;;;;;;2.10;1.42;;;;;;;4.75;100.00;100760.16;2611281;36;20126;-72
2021/11/29 10:40:10;;;;;;;4.25;1.67;;;;;;;4.70;100.00;100763.13;2607766;36;20042;-72
2021/11/29 10:42:39;;;;;;;3.72;1.73;;;;;;;4.73;100.00;100770.06;2612802;31;20138;-72
2021/11/29 10:45:08;;;;;;;4.80;2.05;;;;;;;4.74;100.00;100766.44;2612398;36;20118;-73
2021/11/29 10:47:39;;;;;;;2.95;1.30;;;;;;;4.78;100.00;100764.44;2611800;36;20083;-72
2021/11/29 10:50:09;;;;;;;4.13;1.70;;;;;;;4.89;100.00;100778.78;2611860;36;20030;-72
2021/11/29 10:52:37;;;;;;;4.28;1.83;;;;;;;4.96;100.00;100773.91;2610044;36;20192;-71
2021/11/29 10:55:06;;;;;;;4.95;1.90;;;;;;;5.09;100.00;100781.91;2603863;36;20122;-71
2021/11/29 10:57:46;;;;;;;5.72;1.50;;;;;;;5.20;100.00;100779.38;2610357;36;20057;-70
2021/11/29 11:00:17;;;;;;;5.10;1.58;;;;;;;5.35;100.00;100785.50;2609085;36;21215;-70
2021/11/29 11:03:05;;;;;;;4.93;1.65;;;;;;;5.55;100.00;100777.94;2594144;36;20069;-71
2021/11/29 11:05:33;;;;;;;4.25;2.10;;;;;;;5.57;100.00;100784.88;2610113;36;20052;-71
2021/11/29 11:08:16;;;;;;;2.72;1.40;;;;;;;5.66;100.00;100782.56;2610794;36;20030;-71
2021/11/29 11:10:44;;;;;;;3.50;1.90;;;;;;;5.69;100.00;100785.00;2610692;36;20034;-71
2021/11/29 11:13:13;;;;;;;6.60;1.70;;;;;;;5.74;100.00;100788.19;2609974;36;20034;-71
2021/11/29 11:15:47;;;;;;;6.53;3.20;;;;;;;5.72;100.00;100790.13;2610942;31;20476;-71
2021/11/29 11:18:40;;;;;;;5.78;2.92;;;;;;;5.73;100.00;100791.84;2626639;31;20129;-71
2021/11/29 11:21:28;;;;;;;4.25;2.63;;;;;;;5.73;100.00;100798.03;2611784;36;20039;-71
2021/11/29 11:24:00;;;;;;;7.40;2.10;;;;;;;5.79;100.00;100799.44;2610807;36;20050;-71
2021/11/29 11:26:34;;;;;;;2.72;1.60;;;;;;;6.01;100.00;100800.59;2610319;36;20038;-71
2021/11/29 11:29:02;;;;;;;4.28;1.70;;;;;;;6.03;100.00;100801.38;2610176;31;20543;-72
2021/11/29 11:31:30;;;;;;;3.28;2.38;;;;;;;5.95;100.00;100802.72;2609514;36;20182;-71
2021/11/29 11:34:01;;;;;;;7.28;3.60;;;;;;;5.83;100.00;100806.28;2610566;36;20709;-74
2021/11/29 11:36:30;;;;;;;5.72;2.40;;;;;;;5.78;100.00;100803.91;2611151;31;20491;-74
2021/11/29 11:39:04;;;;;;;6.70;3.30;;;;;;;5.71;100.00;100804.44;2610393;36;20162;-72
2021/11/29 11:41:33;;;;;;;9.68;2.50;;;;;;;5.75;100.00;100804.09;2609794;36;20322;-72
2021/11/29 11:44:03;;;;;;;3.75;1.60;;;;;;;5.74;100.00;100802.41;2610040;36;20482;-72
2021/11/29 11:46:32;;;;;;;5.13;1.75;;;;;;;5.74;100.00;100804.22;2610656;36;20089;-72
2021/11/29 11:49:04;;;;;;;5.90;2.50;;;;;;;5.82;100.00;100799.22;2609878;36;20046;-71
2021/11/29 11:51:40;;;;;;;12.40;1.98;;;;;;;5.72;100.00;100798.13;2625001;36;20161;-72
2021/11/29 11:54:08;;;;;;;4.05;1.77;;;;;;;5.67;100.00;100797.59;2610469;36;20031;-71
2021/11/29 11:56:37;;;;;;;6.53;1.95;;;;;;;5.65;100.00;100797.69;2610806;36;20069;-71
2021/11/29 11:59:13;;;;;;;3.27;1.70;;;;;;;5.76;100.00;100805.81;2610250;36;20126;-71
2021/11/29 12:01:44;;;;;;;3.90;2.25;;;;;;;5.88;100.00;100792.59;2610234;36;20031;-71
2021/11/29 12:04:17;;;;;;;3.95;1.80;;;;;;;5.84;100.00;100799.94;2608912;36;20038;-71
2021/11/29 12:06:49;;;;;;;9.38;7.65;;;;;;;5.85;100.00;100790.13;2611082;36;20122;-71
2021/11/29 12:09:18;;;;;;;13.93;8.95;;;;;;;5.85;100.00;100807.00;2605505;31;20081;-71
2021/11/29 12:11:47;;;;;;;8.38;3.72;;;;;;;5.90;100.00;100804.00;2602396;36;20596;-72
2021/11/29 12:14:32;;;;;;;5.38;2.70;;;;;;;5.88;100.00;100809.47;2603999;31;20057;-72
2021/11/29 12:17:02;;;;;;;4.07;2.03;;;;;;;5.89;100.00;100812.97;2609692;31;20543;-72
2021/11/29 12:19:45;;;;;;;3.28;1.63;;;;;;;5.82;100.00;100809.91;2610586;36;20154;-72
2021/11/29 12:22:32;;;;;;;4.03;1.88;;;;;;;5.87;100.00;100818.44;2610295;36;20035;-72
2021/11/29 12:25:03;;;;;;;3.25;1.75;;;;;;;5.89;100.00;100813.84;2610976;36;20035;-72
2021/11/29 12:27:46;;;;;;;6.18;2.28;;;;;;;5.91;100.00;100822.59;2609139;36;20606;-72
2021/11/29 12:30:20;;;;;;;6.30;2.03;;;;;;;5.97;100.00;100819.53;2609399;36;20043;-72
2021/11/29 12:33:01;;;;;;;3.30;2.30;;;;;;;6.07;100.00;100819.75;2611194;36;20197;-72
2021/11/29 12:36:02;;;;;;;3.63;2.10;;;;;;;6.04;100.00;100819.97;2611385;36;20895;-72
2021/11/29 12:41:10;;;;;;;4.20;2.05;;;;;;;5.87;100.00;100814.91;2610472;36;20540;-72
2021/11/29 12:43:42;;;;;;;3.80;1.80;;;;;;;5.86;100.00;100822.09;2611030;36;20150;-72
2021/11/29 12:46:34;;;;;;;5.50;1.92;;;;;;;5.84;100.00;100818.66;2606552;36;20559;-72
2021/11/29 12:49:09;;;;;;;3.28;1.77;;;;;;;5.89;100.00;100821.00;2611898;36;20139;-72
2021/11/29 12:54:41;;;;;;;7.38;2.03;;;;;;;5.73;100.00;100813.22;2627882;36;20034;-72
2021/11/29 12:57:34;;;;;;;7.50;4.40;;;;;;;5.68;100.00;100815.31;2607246;36;20065;-72
2021/11/29 13:00:06;;;;;;;6.47;3.67;;;;;;;5.70;100.00;100816.09;2611435;36;20474;-72
2021/11/29 13:03:19;;;;;;;3.10;1.60;;;;;;;5.71;100.00;100815.13;2610522;36;20125;-71
2021/11/29 13:14:10;;;;;;;4.40;2.28;;;;;;;5.68;100.00;100828.69;2611385;36;20542;-71
2021/11/29 13:17:21;;;;;;;5.75;3.25;;;;;;;5.70;100.00;100824.94;2610396;36;20470;-71
2021/11/29 13:19:59;;;;;;;3.15;1.30;;;;;;;5.65;100.00;100828.91;2611047;36;20034;-71
2021/11/29 13:22:27;;;;;;;2.92;1.65;;;;;;;5.62;100.00;100832.63;2611648;31;20522;-71
2021/11/29 13:24:58;;;;;;;6.20;3.60;;;;;;;5.54;100.00;100838.50;2611389;36;20038;-71
2021/11/29 13:27:38;;;;;;;4.68;2.17;;;;;;;5.57;100.00;100832.09;2610421;36;20160;-71
2021/11/29 13:30:11;;;;;;;3.50;1.80;;;;;;;5.49;100.00;100837.09;2611319;36;20041;-71
2021/11/29 13:32:42;;;;;;;3.63;1.60;;;;;;;5.47;100.00;100834.53;2611179;36;20519;-71
2021/11/29 13:35:15;;;;;;;2.63;1.42;;;;;;;5.44;100.00;100832.06;2611372;36;20209;-73
2021/11/29 13:37:54;;;;;;;2.75;1.40;;;;;;;5.41;100.00;100837.63;2611210;36;20030;-73
2021/11/29 13:40:45;;;;;;;3.03;1.45;;;;;;;5.34;100.00;100838.97;2609786;36;20038;-73
2021/11/29 13:43:27;;;;;;;2.00;1.10;;;;;;;5.37;100.00;100836.09;2609978;36;20181;-74
2021/11/29 13:46:25;;;;;;;5.97;1.90;;;;;;;5.29;100.00;100833.09;2610417;36;20069;-72
2021/11/29 13:49:21;;;;;;;21.55;2.97;;;;;;;5.32;100.00;100847.09;2610348;36;20130;-72
2021/11/29 13:51:49;;;;;;;37.30;5.32;;;;;;;5.30;100.00;100850.81;2611138;36;20046;-72
2021/11/29 13:54:24;;;;;;;52.78;7.50;;;;;;;5.29;100.00;100859.78;2611542;31;20153;-72
2021/11/29 13:56:55;;;;;;;36.22;5.60;;;;;;;5.29;100.00;100859.78;2610788;36;20427;-72
2021/11/29 14:00:06;;;;;;;30.10;4.72;;;;;;;5.25;100.00;100862.63;2610269;36;20555;-72
2021/11/29 14:02:37;;;;;;;44.17;6.18;;;;;;;5.29;100.00;100859.78;2609210;36;20065;-72
2021/11/29 14:05:05;;;;;;;15.25;3.17;;;;;;;5.24;100.00;100873.41;2604471;36;20030;-72
2021/11/29 14:07:59;;;;;;;11.15;2.80;;;;;;;5.17;100.00;100872.97;2611277;36;20138;-72
2021/11/29 14:10:42;;;;;;;8.63;1.80;;;;;;;5.20;100.00;100869.25;2611325;36;20043;-72
2021/11/29 14:13:15;;;;;;;9.75;1.92;;;;;;;5.13;100.00;100882.13;2610730;36;20035;-72
2021/11/29 14:16:07;;;;;;;4.75;1.85;;;;;;;5.08;100.00;100876.25;2610958;36;20038;-72